createdAt,value
2018-03-02T00:01:55.374Z,-3.70
2018-03-02T00:04:24.527Z,-3.80
2018-03-02T00:06:53.518Z,-3.80
2018-03-02T00:09:24.311Z,-3.80
2018-03-02T00:11:54.412Z,-3.60
2018-03-02T00:14:26.478Z,-3.70
2018-03-02T00:16:57.410Z,-3.70
2018-03-02T00:19:36.824Z,-3.70
2018-03-02T00:22:04.345Z,-3.80
2018-03-02T00:24:32.617Z,-3.90
2018-03-02T00:27:00.169Z,-3.90
2018-03-02T00:29:28.003Z,-4.00
2018-03-02T00:31:55.585Z,-3.90
2018-03-02T00:34:26.326Z,-3.90
2018-03-02T00:36:55.814Z,-3.90
2018-03-02T00:39:26.265Z,-3.90
2018-03-02T00:41:55.336Z,-4.00
2018-03-02T00:44:33.270Z,-3.90
2018-03-02T00:47:00.858Z,-4.00
2018-03-02T00:49:29.122Z,-4.00
2018-03-02T00:52:00.060Z,-4.10
2018-03-02T00:54:27.794Z,-4.00
2018-03-02T00:57:06.886Z,-4.10
2018-03-02T00:59:34.389Z,-4.20
2018-03-02T01:02:01.910Z,-4.20
2018-03-02T01:04:29.412Z,-4.20
2018-03-02T01:07:03.369Z,-4.20
2018-03-02T01:09:30.950Z,-4.20
2018-03-02T01:11:58.476Z,-4.20
2018-03-02T01:14:26.677Z,-4.20
2018-03-02T01:16:55.882Z,-4.20
2018-03-02T01:19:25.206Z,-4.20
2018-03-02T01:21:55.445Z,-4.20
2018-03-02T01:24:25.482Z,-4.20
2018-03-02T01:26:54.838Z,-4.20
2018-03-02T01:29:25.297Z,-4.20
2018-03-02T01:31:55.304Z,-4.10
2018-03-02T01:34:24.478Z,-4.20
2018-03-02T01:36:54.064Z,-4.10
2018-03-02T01:39:25.407Z,-4.10
2018-03-02T01:41:54.839Z,-4.10
2018-03-02T01:44:24.734Z,-4.10
2018-03-02T01:46:54.118Z,-4.10
2018-03-02T01:49:23.268Z,-4.10
2018-03-02T01:51:54.832Z,-4.00
2018-03-02T01:54:25.529Z,-4.00
2018-03-02T01:56:56.342Z,-4.00
2018-03-02T01:59:25.526Z,-4.00
2018-03-02T02:01:55.010Z,-4.00
2018-03-02T02:04:25.373Z,-4.00
2018-03-02T02:06:55.462Z,-4.00
2018-03-02T02:09:25.126Z,-4.00
2018-03-02T02:11:55.652Z,-4.00
2018-03-02T02:14:24.714Z,-4.00
2018-03-02T02:16:55.510Z,-4.00
2018-03-02T02:19:24.857Z,-4.00
2018-03-02T02:21:54.817Z,-3.90
2018-03-02T02:24:24.904Z,-3.90
2018-03-02T02:26:55.505Z,-3.90
2018-03-02T02:29:25.867Z,-3.90
2018-03-02T02:31:55.185Z,-3.90
2018-03-02T02:34:24.891Z,-3.90
2018-03-02T02:36:54.465Z,-3.90
2018-03-02T02:39:24.497Z,-3.90
2018-03-02T02:41:53.129Z,-3.90
2018-03-02T02:44:24.557Z,-3.90
2018-03-02T02:46:55.797Z,-3.90
2018-03-02T02:49:24.921Z,-3.90
2018-03-02T02:51:54.508Z,-3.90
2018-03-02T02:54:23.177Z,-3.90
2018-03-02T02:56:53.608Z,-3.90
2018-03-02T02:59:25.837Z,-3.90
2018-03-02T03:02:04.977Z,-3.90
2018-03-02T03:04:33.264Z,-3.90
2018-03-02T03:07:00.765Z,-3.90
2018-03-02T03:09:28.340Z,-3.90
2018-03-02T03:11:56.608Z,-3.90
2018-03-02T03:14:25.485Z,-3.90
2018-03-02T03:16:55.497Z,-3.90
2018-03-02T03:19:25.577Z,-3.90
2018-03-02T03:21:55.624Z,-4.00
2018-03-02T03:24:26.853Z,-4.10
2018-03-02T03:26:55.772Z,-4.20
2018-03-02T03:29:25.677Z,-4.40
2018-03-02T03:31:54.955Z,-4.40
2018-03-02T03:34:25.665Z,-4.40
2018-03-02T03:36:54.886Z,-4.50
2018-03-02T03:39:24.891Z,-4.50
2018-03-02T03:41:56.559Z,-4.50
2018-03-02T03:44:25.892Z,-4.50
2018-03-02T03:46:55.609Z,-4.50
2018-03-02T03:49:25.059Z,-4.50
2018-03-02T03:51:53.645Z,-4.50
2018-03-02T03:54:24.745Z,-4.50
2018-03-02T03:56:54.298Z,-4.50
2018-03-02T03:59:23.908Z,-4.60
2018-03-02T04:01:54.446Z,-4.60
2018-03-02T04:04:26.013Z,-4.60
2018-03-02T04:06:56.685Z,-4.60
2018-03-02T04:09:26.889Z,-4.70
2018-03-02T04:11:55.876Z,-4.70
2018-03-02T04:14:25.173Z,-4.80
2018-03-02T04:16:55.464Z,-4.80
2018-03-02T04:19:25.806Z,-4.80
2018-03-02T04:21:54.904Z,-4.80
2018-03-02T04:24:25.033Z,-4.90
2018-03-02T04:26:55.428Z,-4.80
2018-03-02T04:29:24.825Z,-4.90
2018-03-02T04:32:03.492Z,-4.90
2018-03-02T04:34:31.013Z,-4.90
2018-03-02T04:37:00.910Z,-4.90
2018-03-02T04:39:28.572Z,-4.90
2018-03-02T04:41:56.384Z,-4.90
2018-03-02T04:44:35.160Z,-4.90
2018-03-02T04:47:02.668Z,-5.00
2018-03-02T04:49:30.164Z,-5.00
2018-03-02T04:51:58.466Z,-5.00
2018-03-02T04:54:27.471Z,-5.00
2018-03-02T04:56:56.992Z,-5.00
2018-03-02T04:59:26.693Z,-5.10
2018-03-02T05:01:56.988Z,-5.10
2018-03-02T05:04:35.174Z,-5.10
2018-03-02T05:07:03.452Z,-5.00
2018-03-02T05:09:31.034Z,-5.10
2018-03-02T05:11:59.308Z,-5.10
2018-03-02T05:14:26.901Z,-5.10
2018-03-02T05:16:56.831Z,-5.10
2018-03-02T05:19:36.897Z,-5.10
2018-03-02T05:22:05.183Z,-5.00
2018-03-02T05:24:33.440Z,-5.10
2018-03-02T05:27:00.953Z,-5.00
2018-03-02T05:29:29.221Z,-5.00
2018-03-02T05:31:56.736Z,-5.00
2018-03-02T05:34:27.309Z,-5.00
2018-03-02T05:37:05.653Z,-5.00
2018-03-02T05:39:33.149Z,-5.00
2018-03-02T05:42:00.732Z,-5.00
2018-03-02T05:44:28.998Z,-5.00
2018-03-02T05:46:56.602Z,-5.10
2018-03-02T05:49:25.361Z,-5.00
2018-03-02T05:51:59.426Z,-5.00
2018-03-02T05:54:28.237Z,-4.90
2018-03-02T05:56:56.280Z,-4.90
2018-03-02T05:59:25.539Z,-4.80
2018-03-02T06:01:59.274Z,-4.80
2018-03-02T06:04:29.453Z,-4.70
2018-03-02T06:06:56.981Z,-4.70
2018-03-02T06:09:26.717Z,-4.70
2018-03-02T06:11:57.385Z,-4.60
2018-03-02T06:14:25.889Z,-4.60
2018-03-02T06:16:58.446Z,-4.60
2018-03-02T06:19:27.988Z,-4.50
2018-03-02T06:21:55.940Z,-4.50
2018-03-02T06:24:34.797Z,-4.60
2018-03-02T06:27:02.349Z,-4.50
2018-03-02T06:29:32.438Z,-4.50
2018-03-02T06:32:00.053Z,-4.50
2018-03-02T06:34:28.321Z,-4.40
2018-03-02T06:36:56.622Z,-4.40
2018-03-02T06:39:25.242Z,-4.30
2018-03-02T06:41:55.899Z,-4.40
2018-03-02T06:44:25.793Z,-4.30
2018-03-02T06:46:59.442Z,-4.30
2018-03-02T06:49:27.018Z,-4.20
2018-03-02T06:51:56.096Z,-4.20
2018-03-02T06:54:27.107Z,-4.10
2018-03-02T06:56:59.272Z,-4.00
2018-03-02T06:59:26.808Z,-4.00
2018-03-02T07:01:57.478Z,-4.00
2018-03-02T07:04:28.336Z,-4.00
2018-03-02T07:06:58.397Z,-4.10
2018-03-02T07:09:26.746Z,-4.10
2018-03-02T07:11:58.045Z,-3.90
2018-03-02T07:14:27.285Z,-3.80
2018-03-02T07:16:56.203Z,-3.80
2018-03-02T07:19:27.553Z,-4.00
2018-03-02T07:22:00.711Z,-3.90
2018-03-02T07:24:28.976Z,-3.60
2018-03-02T07:26:58.426Z,-3.60
2018-03-02T07:29:36.995Z,-3.50
2018-03-02T07:32:04.617Z,-3.50
2018-03-02T07:34:32.901Z,-3.30
2018-03-02T07:37:03.967Z,-3.30
2018-03-02T07:39:32.257Z,-3.50
2018-03-02T07:42:00.552Z,-3.50
2018-03-02T07:44:28.836Z,-3.30
2018-03-02T07:46:59.141Z,-3.20
2018-03-02T07:49:27.478Z,-3.20
2018-03-02T07:51:56.753Z,-3.20
2018-03-02T07:54:26.518Z,-3.00
2018-03-02T07:56:55.781Z,-2.80
2018-03-02T07:59:25.700Z,-2.90
2018-03-02T08:01:55.629Z,-2.90
2018-03-02T08:04:26.241Z,-2.70
2018-03-02T08:06:55.361Z,-2.50
2018-03-02T08:09:31.575Z,-2.50
2018-03-02T08:11:59.308Z,-2.60
2018-03-02T08:14:27.008Z,-2.60
2018-03-02T08:16:56.281Z,-2.40
2018-03-02T08:19:26.209Z,-2.20
2018-03-02T08:21:56.317Z,-2.20
2018-03-02T08:24:25.549Z,-2.30
2018-03-02T08:27:04.225Z,-2.40
2018-03-02T08:29:31.751Z,-2.40
2018-03-02T08:32:00.026Z,-1.90
2018-03-02T08:34:27.565Z,-1.90
2018-03-02T08:36:56.897Z,-1.80
2018-03-02T08:39:25.461Z,-1.80
2018-03-02T08:41:55.551Z,-1.80
2018-03-02T08:44:25.381Z,-1.50
2018-03-02T08:46:55.805Z,-1.80
2018-03-02T08:49:26.550Z,-1.70
2018-03-02T08:51:55.477Z,-1.60
2018-03-02T08:54:25.468Z,-1.50
2018-03-02T08:57:03.973Z,-1.50
2018-03-02T08:59:31.514Z,-1.40
2018-03-02T09:01:59.786Z,-1.30
2018-03-02T09:04:27.377Z,-1.30
2018-03-02T09:06:56.381Z,-1.50
2018-03-02T09:09:25.607Z,-1.60
2018-03-02T09:11:55.298Z,-1.60
2018-03-02T09:14:24.553Z,-1.30
2018-03-02T09:16:54.045Z,-1.50
2018-03-02T09:19:32.257Z,-1.30
2018-03-02T09:21:59.758Z,-1.30
2018-03-02T09:24:27.310Z,-1.00
2018-03-02T09:26:56.112Z,-0.80
2018-03-02T09:29:24.859Z,-0.80
2018-03-02T09:31:55.582Z,-0.70
2018-03-02T09:34:24.530Z,-0.40
2018-03-02T09:36:54.925Z,-0.70
2018-03-02T09:39:25.829Z,-1.00
2018-03-02T09:41:55.209Z,-1.00
2018-03-02T09:44:24.825Z,-1.30
2018-03-02T09:46:55.831Z,-0.90
2018-03-02T09:49:25.913Z,-0.90
2018-03-02T09:51:55.918Z,-0.60
2018-03-02T09:54:25.373Z,-0.40
2018-03-02T09:56:54.994Z,-0.40
2018-03-02T09:59:25.526Z,0.00
2018-03-02T10:01:54.025Z,-0.20
2018-03-02T10:04:23.618Z,0.00
2018-03-02T10:06:53.634Z,-0.10
2018-03-02T10:09:25.502Z,-0.30
2018-03-02T10:11:55.880Z,-0.30
2018-03-02T10:14:25.976Z,-0.40
2018-03-02T10:17:05.409Z,-0.40
2018-03-02T10:19:32.906Z,-0.40
2018-03-02T10:22:00.425Z,-0.20
2018-03-02T10:24:27.929Z,-0.20
2018-03-02T10:26:55.769Z,-0.20
2018-03-02T10:29:25.575Z,0.00
2018-03-02T10:31:54.966Z,-0.20
2018-03-02T10:34:25.448Z,0.00
2018-03-02T10:36:56.797Z,0.00
2018-03-02T10:39:25.453Z,0.30
2018-03-02T10:41:55.466Z,0.30
2018-03-02T10:44:26.536Z,0.60
2018-03-02T10:47:03.601Z,0.80
2018-03-02T10:49:31.553Z,0.90
2018-03-02T10:51:59.093Z,0.70
2018-03-02T10:54:27.542Z,0.70
2018-03-02T10:56:57.189Z,0.90
2018-03-02T10:59:27.737Z,0.40
2018-03-02T11:01:56.761Z,0.80
2018-03-02T11:04:31.957Z,0.90
2018-03-02T11:06:59.477Z,0.90
2018-03-02T11:09:27.965Z,1.10
2018-03-02T11:11:56.988Z,1.40
2018-03-02T11:14:26.645Z,1.80
2018-03-02T11:16:57.717Z,1.70
2018-03-02T11:19:27.709Z,1.20
2018-03-02T11:21:57.862Z,1.70
2018-03-02T11:24:27.781Z,1.50
2018-03-02T11:26:57.004Z,1.40
2018-03-02T11:29:27.553Z,1.10
2018-03-02T11:31:57.509Z,1.20
2018-03-02T11:34:28.063Z,1.50
2018-03-02T11:36:57.977Z,1.50
2018-03-02T11:39:25.838Z,1.60
2018-03-02T11:41:57.498Z,2.10
2018-03-02T11:44:25.957Z,2.00
2018-03-02T11:46:57.643Z,1.80
2018-03-02T11:49:26.277Z,2.10
2018-03-02T11:51:57.820Z,2.10
2018-03-02T11:54:27.936Z,2.40
2018-03-02T11:56:57.589Z,2.20
2018-03-02T11:59:27.842Z,2.50
2018-03-02T12:01:56.985Z,2.60
2018-03-02T12:04:25.912Z,2.90
2018-03-02T12:06:54.637Z,2.80
2018-03-02T12:09:24.232Z,2.90
2018-03-02T12:11:53.602Z,2.60
2018-03-02T12:14:25.022Z,2.70
2018-03-02T12:16:55.116Z,2.60
2018-03-02T12:19:25.545Z,2.40
2018-03-02T12:21:57.991Z,2.60
2018-03-02T12:24:26.829Z,2.60
2018-03-02T12:26:56.130Z,2.80
2018-03-02T12:29:25.105Z,2.70
2018-03-02T12:31:55.518Z,2.80
2018-03-02T12:34:26.849Z,3.00
2018-03-02T12:36:55.097Z,2.70
2018-03-02T12:39:26.041Z,2.80
2018-03-02T12:42:04.819Z,2.70
2018-03-02T12:44:32.431Z,2.70
2018-03-02T12:46:59.937Z,2.90
2018-03-02T12:49:27.474Z,2.60
2018-03-02T12:51:56.989Z,2.60
2018-03-02T12:54:26.125Z,2.70
2018-03-02T12:56:54.897Z,2.40
2018-03-02T12:59:27.765Z,2.50
2018-03-02T13:04:57.921Z,2.60
2018-03-02T13:07:28.213Z,2.40
2018-03-02T13:09:58.297Z,2.40
2018-03-02T13:12:28.262Z,2.30
2018-03-02T13:15:04.449Z,2.90
2018-03-02T13:17:32.729Z,2.60
2018-03-02T13:20:00.989Z,2.50
2018-03-02T13:22:38.330Z,2.50
2018-03-02T13:25:06.622Z,2.50
2018-03-02T13:27:58.941Z,2.70
2018-03-02T13:30:27.593Z,2.70
2018-03-02T13:33:07.023Z,2.90
2018-03-02T13:35:34.962Z,3.10
2018-03-02T13:38:02.481Z,2.90
2018-03-02T13:43:32.169Z,3.10
2018-03-02T13:46:00.514Z,3.20
2018-03-02T13:48:40.699Z,3.10
2018-03-02T13:51:11.004Z,3.10
2018-03-02T13:53:41.935Z,3.20
2018-03-02T13:56:32.966Z,3.20
2018-03-02T13:59:00.534Z,3.20
2018-03-02T14:01:33.397Z,2.90
2018-03-02T14:04:25.758Z,2.90
2018-03-02T14:06:58.571Z,3.20
2018-03-02T14:09:28.732Z,3.20
2018-03-02T14:11:57.785Z,3.20
2018-03-02T14:14:27.665Z,3.10
2018-03-02T14:16:57.478Z,3.10
2018-03-02T14:19:27.169Z,3.30
2018-03-02T14:21:57.106Z,3.00
2018-03-02T14:24:28.281Z,3.30
2018-03-02T14:26:58.609Z,3.30
2018-03-02T14:29:38.501Z,3.70
2018-03-02T14:32:06.048Z,3.60
2018-03-02T14:34:34.313Z,3.80
2018-03-02T14:37:01.837Z,3.80
2018-03-02T14:39:29.337Z,4.00
2018-03-02T14:41:56.913Z,3.90
2018-03-02T14:44:39.172Z,3.90
2018-03-02T14:47:06.788Z,3.90
2018-03-02T14:49:35.049Z,3.60
2018-03-02T14:52:03.364Z,3.60
2018-03-02T14:54:30.922Z,3.60
2018-03-02T14:56:59.837Z,3.50
2018-03-02T14:59:27.788Z,3.40
2018-03-02T15:01:57.709Z,3.30
2018-03-02T15:04:26.373Z,3.30
2018-03-02T15:06:55.947Z,3.30
2018-03-02T15:09:26.927Z,3.30
2018-03-02T15:11:58.405Z,3.30
2018-03-02T15:14:28.901Z,3.20
2018-03-02T15:16:58.817Z,3.10
2018-03-02T15:19:28.558Z,3.20
2018-03-02T15:22:26.648Z,3.20
2018-03-02T15:24:57.570Z,3.20
2018-03-02T15:27:35.102Z,3.10
2018-03-02T15:30:02.609Z,3.10
2018-03-02T15:32:30.130Z,3.20
2018-03-02T15:35:02.766Z,2.90
2018-03-02T15:37:31.154Z,2.90
2018-03-02T15:40:01.422Z,3.10
2018-03-02T15:42:28.941Z,3.00
2018-03-02T15:44:58.063Z,3.00
2018-03-02T15:47:28.137Z,3.00
2018-03-02T15:49:57.121Z,2.70
2018-03-02T15:52:27.841Z,2.70
2018-03-02T15:54:58.274Z,2.80
2018-03-02T15:57:27.169Z,2.80
2018-03-02T15:59:57.123Z,2.80
2018-03-02T16:02:27.628Z,2.70
2018-03-02T16:04:55.129Z,2.50
2018-03-02T16:07:33.235Z,2.50
2018-03-02T16:10:01.033Z,2.40
2018-03-02T16:12:28.567Z,2.30
2018-03-02T16:14:58.173Z,2.20
2018-03-02T16:17:26.487Z,2.20
2018-03-02T16:19:57.638Z,2.10
2018-03-02T16:22:28.301Z,2.10
2018-03-02T16:24:58.061Z,2.10
2018-03-02T16:27:27.309Z,2.10
2018-03-02T16:29:57.637Z,2.00
2018-03-02T16:32:28.025Z,2.00
2018-03-02T16:34:58.381Z,1.90
2018-03-02T16:37:28.249Z,2.00
2018-03-02T16:39:58.529Z,2.00
2018-03-02T16:42:27.171Z,1.90
2018-03-02T16:44:57.002Z,1.90
2018-03-02T16:47:27.273Z,1.90
2018-03-02T16:49:56.918Z,1.90
2018-03-02T16:52:34.821Z,1.80
2018-03-02T16:55:02.320Z,1.80
2018-03-02T16:57:29.940Z,1.70
2018-03-02T16:59:57.562Z,1.60
2018-03-02T17:02:26.414Z,1.50
2018-03-02T17:04:56.016Z,1.50
2018-03-02T17:07:26.377Z,1.30
2018-03-02T17:10:06.170Z,1.30
2018-03-02T17:12:33.685Z,1.30
2018-03-02T17:15:01.955Z,1.10
2018-03-02T17:17:29.573Z,1.10
2018-03-02T17:19:57.570Z,1.10
2018-03-02T17:22:27.928Z,1.10
2018-03-02T17:24:58.230Z,1.10
2018-03-02T17:27:27.525Z,1.00
2018-03-02T17:29:57.407Z,0.90
2018-03-02T17:32:27.286Z,0.90
2018-03-02T17:34:57.528Z,0.80
2018-03-02T17:37:35.853Z,0.80
2018-03-02T17:40:03.842Z,0.70
2018-03-02T17:42:32.019Z,0.60
2018-03-02T17:45:00.284Z,0.40
2018-03-02T17:47:28.589Z,0.30
2018-03-02T17:50:02.227Z,0.30
2018-03-02T17:52:29.810Z,0.30
2018-03-02T17:54:58.441Z,0.20
2018-03-02T17:57:28.148Z,0.20
2018-03-02T17:59:57.353Z,0.10
2018-03-02T18:02:28.473Z,0.10
2018-03-02T18:04:58.213Z,0.10
2018-03-02T18:07:26.517Z,0.20
2018-03-02T18:09:57.526Z,0.10
2018-03-02T18:12:27.513Z,0.10
2018-03-02T18:14:57.394Z,0.00
2018-03-02T18:17:36.872Z,0.00
2018-03-02T18:20:04.402Z,0.00
2018-03-02T18:22:32.665Z,0.00
2018-03-02T18:25:00.294Z,0.00
2018-03-02T18:27:27.801Z,0.00
2018-03-02T18:29:57.038Z,-0.10
2018-03-02T18:32:24.551Z,-0.10
2018-03-02T18:34:56.450Z,-0.10
2018-03-02T18:37:36.609Z,-0.10
2018-03-02T18:40:04.161Z,-0.10
2018-03-02T18:42:31.669Z,-0.20
2018-03-02T18:44:59.294Z,-0.20
2018-03-02T18:47:27.218Z,-0.20
2018-03-02T18:49:56.149Z,-0.30
2018-03-02T18:52:25.857Z,-0.30
2018-03-02T18:54:56.844Z,-0.20
2018-03-02T18:57:26.646Z,-0.20
2018-03-02T19:00:05.942Z,-0.20
2018-03-02T19:02:33.450Z,-0.10
2018-03-02T19:05:01.741Z,-0.20
2018-03-02T19:07:29.249Z,-0.30
2018-03-02T19:09:58.071Z,-0.30
2018-03-02T19:12:28.456Z,-0.30
2018-03-02T19:14:57.761Z,-0.30
2018-03-02T19:17:27.996Z,-0.30
2018-03-02T19:19:57.247Z,-0.30
2018-03-02T19:22:27.529Z,-0.40
2018-03-02T19:24:57.726Z,-0.50
2018-03-02T19:27:27.617Z,-0.70
2018-03-02T19:29:57.766Z,-0.70
2018-03-02T19:32:27.198Z,-0.70
2018-03-02T19:34:56.762Z,-0.80
2018-03-02T19:37:27.182Z,-0.80
2018-03-02T19:39:57.526Z,-0.80
2018-03-02T19:42:27.870Z,-0.90
2018-03-02T19:44:56.628Z,-1.00
2018-03-02T19:47:28.415Z,-1.00
2018-03-02T19:49:58.061Z,-1.00
2018-03-02T19:52:28.384Z,-1.00
2018-03-02T19:54:58.571Z,-1.10
2018-03-02T19:57:27.566Z,-1.00
2018-03-02T19:59:57.398Z,-1.00
2018-03-02T20:02:26.536Z,-1.10
2018-03-02T20:04:56.190Z,-1.20
2018-03-02T20:07:42.683Z,-1.20
2018-03-02T20:10:12.964Z,-1.20
2018-03-02T20:12:48.685Z,-1.20
2018-03-02T20:15:26.288Z,-1.20
2018-03-02T20:17:55.650Z,-1.20
2018-03-02T20:20:26.381Z,-1.20
2018-03-02T20:22:55.787Z,-1.20
2018-03-02T20:25:27.338Z,-1.20
2018-03-02T20:27:57.231Z,-1.30
2018-03-02T20:30:25.753Z,-1.30
2018-03-02T20:32:54.891Z,-1.30
2018-03-02T20:35:27.656Z,-1.40
2018-03-02T20:37:56.518Z,-1.40
2018-03-02T20:40:25.971Z,-1.50
2018-03-02T20:43:04.818Z,-1.50
2018-03-02T20:45:32.350Z,-1.50
2018-03-02T20:47:59.858Z,-1.60
2018-03-02T20:50:27.804Z,-1.60
2018-03-02T20:52:56.330Z,-1.50
2018-03-02T20:55:26.482Z,-1.60
2018-03-02T20:57:55.637Z,-1.60
2018-03-02T21:00:26.237Z,-1.80
2018-03-02T21:02:55.753Z,-1.80
2018-03-02T21:05:26.131Z,-1.90
2018-03-02T21:07:55.354Z,-1.90
2018-03-02T21:10:23.997Z,-2.00
2018-03-02T21:12:53.573Z,-2.10
2018-03-02T21:15:23.434Z,-2.10
2018-03-02T21:17:54.647Z,-2.20
2018-03-02T21:20:23.359Z,-2.20
2018-03-02T21:22:54.148Z,-2.20
2018-03-02T21:25:23.050Z,-2.20
2018-03-02T21:28:01.502Z,-2.20
2018-03-02T21:30:28.989Z,-2.20
2018-03-02T21:32:56.717Z,-2.30
2018-03-02T21:35:24.432Z,-2.30
2018-03-02T21:37:52.764Z,-2.40
2018-03-02T21:40:20.713Z,-2.40
2018-03-02T21:42:49.318Z,-2.30
2018-03-02T21:45:18.706Z,-2.40
2018-03-02T21:47:58.755Z,-2.40
2018-03-02T21:50:26.913Z,-2.40
2018-03-02T21:52:54.786Z,-2.40
2018-03-02T21:55:33.019Z,-2.40
2018-03-02T21:58:00.558Z,-2.40
2018-03-02T22:00:28.065Z,-2.40
2018-03-02T22:02:55.649Z,-2.40
2018-03-02T22:05:23.442Z,-2.40
2018-03-02T22:07:51.549Z,-2.40
2018-03-02T22:10:19.808Z,-2.40
2018-03-02T22:12:47.944Z,-2.50
2018-03-02T22:15:16.984Z,-2.40
2018-03-02T22:17:46.401Z,-2.40
2018-03-02T22:20:15.645Z,-2.40
2018-03-02T22:22:43.337Z,-2.40
2018-03-02T22:25:10.867Z,-2.40
2018-03-02T22:27:38.530Z,-2.40
2018-03-02T22:30:07.010Z,-2.40
2018-03-02T22:32:35.372Z,-2.40
2018-03-02T22:35:02.937Z,-2.40
2018-03-02T22:37:31.229Z,-2.50
2018-03-02T22:39:58.730Z,-2.50
2018-03-02T22:42:26.502Z,-2.50
2018-03-02T22:44:54.712Z,-2.50
2018-03-02T22:47:22.969Z,-2.50
2018-03-02T22:49:52.275Z,-2.50
2018-03-02T22:52:21.625Z,-2.50
2018-03-02T22:54:49.993Z,-2.50
2018-03-02T22:57:18.451Z,-2.50
2018-03-02T22:59:50.436Z,-2.40
2018-03-02T23:02:21.021Z,-2.50
2018-03-02T23:04:52.103Z,-2.50
2018-03-02T23:07:20.137Z,-2.50
2018-03-02T23:09:48.867Z,-2.50
2018-03-02T23:12:18.220Z,-2.40
2018-03-02T23:14:48.420Z,-2.40
2018-03-02T23:17:20.220Z,-2.40
2018-03-02T23:19:51.583Z,-2.50
2018-03-02T23:22:23.042Z,-2.50
2018-03-02T23:24:51.574Z,-2.40
2018-03-02T23:27:20.276Z,-2.50
2018-03-02T23:29:51.632Z,-2.50
2018-03-02T23:32:30.135Z,-2.50
2018-03-02T23:34:58.417Z,-2.40
2018-03-02T23:37:25.945Z,-2.40
2018-03-02T23:42:22.857Z,-2.50
2018-03-02T23:44:51.043Z,-2.40
2018-03-02T23:47:21.308Z,-2.40
2018-03-02T23:49:50.039Z,-2.40
2018-03-02T23:52:19.866Z,-2.40
2018-03-02T23:54:52.181Z,-2.40
2018-03-02T23:57:22.367Z,-2.40
2018-03-02T23:59:51.085Z,-2.40
